createdAt,value
2023-01-30T00:01:59.199Z,6.60
2023-01-30T00:04:27.335Z,5.60
2023-01-30T00:06:55.339Z,5.50
2023-01-30T00:09:23.268Z,6.40
2023-01-30T00:11:51.046Z,6.20
2023-01-30T00:14:19.108Z,5.70
2023-01-30T00:16:47.484Z,5.90
2023-01-30T00:19:15.385Z,5.60
2023-01-30T00:21:43.418Z,6.40
2023-01-30T00:24:11.471Z,5.30
2023-01-30T00:26:39.659Z,5.30
2023-01-30T00:29:07.650Z,5.30
2023-01-30T00:31:35.520Z,5.10
2023-01-30T00:34:04.177Z,5.20
2023-01-30T00:36:32.250Z,5.20
2023-01-30T00:39:00.215Z,4.80
2023-01-30T00:41:47.945Z,5.40
2023-01-30T00:44:34.562Z,5.10
2023-01-30T00:47:05.397Z,4.70
2023-01-30T00:49:33.457Z,5.10
2023-01-30T00:52:01.401Z,5.00
2023-01-30T00:54:29.290Z,4.50
2023-01-30T00:56:57.288Z,5.10
2023-01-30T00:59:25.227Z,4.10
2023-01-30T01:01:53.232Z,4.40
2023-01-30T01:04:21.384Z,4.50
2023-01-30T01:06:49.411Z,4.60
2023-01-30T01:09:17.616Z,4.80
2023-01-30T01:11:45.988Z,4.50
2023-01-30T01:14:14.574Z,4.50
2023-01-30T01:16:42.595Z,4.50
2023-01-30T01:19:10.389Z,4.90
2023-01-30T01:21:38.376Z,4.70
2023-01-30T01:24:06.683Z,4.70
2023-01-30T01:26:34.826Z,4.90
2023-01-30T01:29:02.806Z,4.90
2023-01-30T01:31:31.348Z,4.40
2023-01-30T01:33:59.301Z,5.00
2023-01-30T01:36:53.348Z,4.30
2023-01-30T01:39:15.320Z,4.80
2023-01-30T01:41:43.327Z,4.30
2023-01-30T01:44:12.273Z,5.30
2023-01-30T01:46:43.862Z,4.70
2023-01-30T01:49:17.270Z,4.70
2023-01-30T01:51:57.420Z,4.70
2023-01-30T01:54:41.866Z,4.80
2023-01-30T01:57:16.475Z,5.30
2023-01-30T01:59:49.372Z,4.70
2023-01-30T02:02:17.940Z,4.90
2023-01-30T02:05:03.425Z,4.80
2023-01-30T02:08:01.350Z,5.30
2023-01-30T02:10:35.107Z,5.10
2023-01-30T02:13:03.504Z,4.70
2023-01-30T02:15:31.348Z,5.50
2023-01-30T02:17:59.080Z,4.80
2023-01-30T02:20:30.880Z,4.70
2023-01-30T02:23:14.401Z,5.00
2023-01-30T02:25:45.135Z,4.40
2023-01-30T02:28:31.430Z,4.80
2023-01-30T02:31:08.549Z,5.10
2023-01-30T02:33:52.070Z,4.70
2023-01-30T02:36:36.190Z,5.00
2023-01-30T02:39:26.830Z,5.50
2023-01-30T02:42:00.905Z,5.50
2023-01-30T02:44:28.869Z,5.40
2023-01-30T02:46:59.074Z,5.50
2023-01-30T02:49:30.558Z,5.70
2023-01-30T02:51:59.137Z,5.50
2023-01-30T02:54:27.056Z,5.90
2023-01-30T02:56:57.727Z,5.80
2023-01-30T02:59:37.189Z,5.70
2023-01-30T03:02:17.355Z,5.50
2023-01-30T03:04:52.651Z,5.30
2023-01-30T03:07:29.847Z,5.60
2023-01-30T03:12:48.993Z,6.20
2023-01-30T03:15:38.734Z,5.70
2023-01-30T03:18:07.177Z,6.00
2023-01-30T03:20:39.340Z,6.20
2023-01-30T03:23:07.824Z,5.60
2023-01-30T03:25:37.759Z,5.60
2023-01-30T03:28:07.039Z,6.00
2023-01-30T03:30:35.063Z,6.00
2023-01-30T03:33:02.804Z,5.90
2023-01-30T03:35:30.838Z,6.50
2023-01-30T03:37:58.798Z,6.70
2023-01-30T03:40:26.781Z,6.60
2023-01-30T03:42:54.840Z,5.90
2023-01-30T03:45:22.911Z,6.10
2023-01-30T03:47:50.747Z,6.70
2023-01-30T03:50:18.634Z,6.20
2023-01-30T03:52:46.650Z,6.50
2023-01-30T03:55:14.912Z,6.60
2023-01-30T03:57:42.942Z,6.10
2023-01-30T04:00:11.567Z,6.20
2023-01-30T04:02:39.566Z,6.00
2023-01-30T04:05:07.889Z,6.30
2023-01-30T04:07:35.813Z,6.00
2023-01-30T04:10:03.966Z,5.50
2023-01-30T04:12:31.696Z,6.10
2023-01-30T04:14:59.551Z,6.50
2023-01-30T04:17:27.435Z,6.30
2023-01-30T04:19:55.701Z,6.50
2023-01-30T04:22:23.663Z,5.60
2023-01-30T04:24:51.643Z,6.10
2023-01-30T04:27:19.661Z,5.90
2023-01-30T04:29:47.432Z,6.50
2023-01-30T04:32:15.224Z,6.50
2023-01-30T04:34:45.119Z,6.50
2023-01-30T04:37:13.419Z,6.00
2023-01-30T04:39:41.184Z,6.30
2023-01-30T04:42:08.929Z,6.30
2023-01-30T04:44:37.011Z,6.00
2023-01-30T04:47:04.900Z,5.60
2023-01-30T04:49:32.945Z,6.10
2023-01-30T04:52:01.118Z,6.10
2023-01-30T04:54:29.818Z,6.10
2023-01-30T04:56:57.961Z,5.70
2023-01-30T04:59:26.057Z,5.90
2023-01-30T05:01:54.650Z,6.40
2023-01-30T05:04:22.801Z,6.30
2023-01-30T05:06:50.771Z,5.40
2023-01-30T05:09:18.886Z,6.00
2023-01-30T05:11:47.277Z,6.10
2023-01-30T05:14:15.496Z,6.40
2023-01-30T05:16:43.402Z,5.90
2023-01-30T05:19:12.359Z,5.70
2023-01-30T05:21:40.144Z,6.00
2023-01-30T05:24:08.078Z,6.20
2023-01-30T05:26:36.046Z,6.60
2023-01-30T05:29:03.941Z,6.60
2023-01-30T05:31:31.699Z,6.20
2023-01-30T05:33:59.546Z,7.30
2023-01-30T05:36:27.513Z,6.60
2023-01-30T05:38:55.687Z,5.70
2023-01-30T05:41:24.076Z,6.70
2023-01-30T05:43:52.352Z,6.50
2023-01-30T05:46:20.811Z,6.40
2023-01-30T05:48:49.417Z,7.50
2023-01-30T05:51:19.233Z,6.60
2023-01-30T05:53:48.717Z,6.30
2023-01-30T05:56:18.132Z,6.50
2023-01-30T05:58:53.356Z,7.30
2023-01-30T06:01:21.636Z,6.50
2023-01-30T06:03:50.158Z,6.80
2023-01-30T06:06:19.007Z,7.00
2023-01-30T06:08:49.825Z,7.20
2023-01-30T06:11:17.815Z,7.10
2023-01-30T06:13:45.982Z,6.80
2023-01-30T06:16:14.734Z,7.30
2023-01-30T06:18:42.644Z,6.90
2023-01-30T06:21:11.302Z,6.80
2023-01-30T06:23:39.176Z,7.20
2023-01-30T06:26:09.134Z,7.10
2023-01-30T06:28:38.604Z,7.40
2023-01-30T06:31:07.693Z,7.10
2023-01-30T06:33:35.856Z,7.30
2023-01-30T06:36:04.459Z,7.20
2023-01-30T06:38:32.951Z,7.50
2023-01-30T06:41:01.620Z,7.80
2023-01-30T06:43:29.784Z,6.90
2023-01-30T06:46:01.112Z,7.30
2023-01-30T06:48:29.297Z,7.30
2023-01-30T06:50:57.272Z,7.30
2023-01-30T06:53:30.411Z,7.50
2023-01-30T06:55:59.024Z,7.60
2023-01-30T06:58:26.912Z,7.30
2023-01-30T07:00:54.779Z,7.60
2023-01-30T07:03:23.169Z,7.20
2023-01-30T07:05:52.150Z,7.20
2023-01-30T07:08:22.507Z,8.10
2023-01-30T07:10:51.750Z,7.50
2023-01-30T07:13:19.517Z,7.70
2023-01-30T07:15:47.403Z,8.20
2023-01-30T07:18:15.606Z,7.70
2023-01-30T07:20:46.840Z,7.40
2023-01-30T07:23:14.895Z,7.30
2023-01-30T07:25:42.804Z,8.30
2023-01-30T07:28:10.960Z,8.40
2023-01-30T07:30:39.523Z,7.90
2023-01-30T07:33:07.474Z,7.70
2023-01-30T07:35:36.768Z,6.80
2023-01-30T07:38:05.103Z,7.10
2023-01-30T07:40:33.056Z,6.80
2023-01-30T07:43:05.477Z,8.60
2023-01-30T07:45:40.696Z,7.70
2023-01-30T07:48:10.250Z,7.10
2023-01-30T07:50:39.025Z,7.50
2023-01-30T07:53:09.867Z,7.60
2023-01-30T07:55:38.242Z,8.40
2023-01-30T07:58:06.131Z,8.60
2023-01-30T08:00:34.580Z,7.10
2023-01-30T08:03:02.342Z,8.10
2023-01-30T08:05:30.431Z,8.00
2023-01-30T08:07:58.401Z,7.70
2023-01-30T08:10:26.248Z,8.50
2023-01-30T08:12:54.539Z,8.00
2023-01-30T08:15:23.122Z,8.30
2023-01-30T08:17:53.662Z,9.00
2023-01-30T08:20:21.930Z,7.80
2023-01-30T08:22:50.064Z,8.60
2023-01-30T08:25:17.918Z,8.90
2023-01-30T08:27:45.771Z,9.10
2023-01-30T08:30:13.696Z,8.80
2023-01-30T08:32:42.056Z,8.60
2023-01-30T08:35:10.208Z,9.40
2023-01-30T08:37:42.045Z,8.20
2023-01-30T08:40:10.670Z,8.70
2023-01-30T08:42:38.537Z,8.30
2023-01-30T08:45:07.227Z,8.30
2023-01-30T08:47:35.810Z,8.30
2023-01-30T08:50:04.235Z,8.70
2023-01-30T08:52:32.766Z,8.10
2023-01-30T08:55:00.808Z,8.80
2023-01-30T08:57:29.515Z,7.90
2023-01-30T08:59:57.551Z,8.70
2023-01-30T09:02:25.440Z,8.20
2023-01-30T09:04:53.667Z,9.40
2023-01-30T09:07:21.797Z,8.40
2023-01-30T09:09:49.615Z,8.00
2023-01-30T09:12:17.427Z,8.00
2023-01-30T09:14:45.393Z,6.80
2023-01-30T09:17:13.680Z,8.10
2023-01-30T09:19:41.952Z,7.20
2023-01-30T09:22:10.240Z,7.30
2023-01-30T09:24:38.239Z,7.90
2023-01-30T09:27:06.565Z,7.90
2023-01-30T09:29:34.748Z,6.90
2023-01-30T09:32:03.524Z,6.50
2023-01-30T09:34:31.256Z,6.70
2023-01-30T09:37:04.951Z,7.50
2023-01-30T09:39:33.282Z,6.70
2023-01-30T09:42:04.453Z,7.10
2023-01-30T09:44:51.524Z,6.30
2023-01-30T09:47:27.167Z,6.50
2023-01-30T09:50:06.390Z,6.60
2023-01-30T09:52:51.276Z,7.10
2023-01-30T09:55:24.558Z,6.90
2023-01-30T09:57:52.813Z,6.90
2023-01-30T10:00:25.190Z,7.10
2023-01-30T10:03:22.790Z,6.70
2023-01-30T10:05:52.847Z,6.60
2023-01-30T10:08:34.661Z,7.00
2023-01-30T10:11:10.051Z,6.20
2023-01-30T10:13:45.637Z,6.60
2023-01-30T10:16:35.350Z,5.60
2023-01-30T10:19:18.150Z,6.20
2023-01-30T10:22:02.401Z,5.60
2023-01-30T10:24:39.827Z,5.30
2023-01-30T10:29:38.095Z,5.50
2023-01-30T10:32:10.776Z,5.30
2023-01-30T10:34:40.415Z,5.50
2023-01-30T10:37:18.114Z,5.50
2023-01-30T10:39:55.244Z,6.00
2023-01-30T10:42:29.573Z,5.80
2023-01-30T10:45:03.088Z,6.20
2023-01-30T10:47:51.266Z,6.30
2023-01-30T10:50:21.588Z,6.10
2023-01-30T10:52:59.124Z,5.40
2023-01-30T10:55:40.185Z,5.90
2023-01-30T10:58:14.104Z,5.80
2023-01-30T11:00:41.795Z,5.70
2023-01-30T11:03:09.609Z,5.60
2023-01-30T11:05:44.587Z,6.50
2023-01-30T11:08:26.976Z,6.10
2023-01-30T11:10:55.761Z,5.40
2023-01-30T11:13:27.732Z,6.00
2023-01-30T11:16:04.345Z,6.10
2023-01-30T11:19:17.779Z,5.80
2023-01-30T11:21:27.015Z,5.40
2023-01-30T11:24:03.442Z,5.80
2023-01-30T11:26:46.809Z,4.70
2023-01-30T11:29:32.774Z,5.30
2023-01-30T11:32:06.197Z,5.50
2023-01-30T11:34:34.717Z,5.30
2023-01-30T11:37:13.541Z,4.80
2023-01-30T11:39:48.692Z,5.30
2023-01-30T11:42:19.508Z,5.40
2023-01-30T11:44:47.572Z,5.00
2023-01-30T11:47:20.443Z,4.70
2023-01-30T11:50:01.974Z,4.70
2023-01-30T11:52:42.826Z,4.50
2023-01-30T11:55:13.547Z,4.70
2023-01-30T11:57:43.894Z,4.40
2023-01-30T12:00:18.325Z,4.60
2023-01-30T12:02:48.484Z,14.30
2023-01-30T12:05:33.016Z,4.30
2023-01-30T12:08:17.491Z,6.50
2023-01-30T12:10:50.880Z,4.70
2023-01-30T12:13:24.473Z,4.40
2023-01-30T12:15:57.108Z,4.60
2023-01-30T12:18:37.353Z,4.50
2023-01-30T12:21:17.920Z,4.50
2023-01-30T12:23:53.009Z,5.60
2023-01-30T12:26:25.675Z,6.80
2023-01-30T12:28:56.974Z,4.30
2023-01-30T12:31:36.872Z,4.00
2023-01-30T12:34:04.651Z,4.40
2023-01-30T12:36:42.408Z,4.20
2023-01-30T12:39:22.590Z,4.20
2023-01-30T12:41:59.521Z,4.30
2023-01-30T12:44:27.756Z,4.60
2023-01-30T12:47:10.874Z,4.50
2023-01-30T12:49:51.101Z,4.30
2023-01-30T12:52:22.012Z,5.30
2023-01-30T12:54:49.880Z,4.30
2023-01-30T12:57:34.797Z,4.60
2023-01-30T13:00:09.574Z,4.60
2023-01-30T13:02:52.653Z,4.70
2023-01-30T13:05:37.800Z,4.30
2023-01-30T13:08:05.642Z,4.00
2023-01-30T13:10:43.625Z,5.10
2023-01-30T13:13:46.930Z,3.80
2023-01-30T13:16:40.491Z,4.20
2023-01-30T13:19:14.209Z,3.20
2023-01-30T13:21:47.839Z,4.20
2023-01-30T13:24:16.545Z,4.00
2023-01-30T13:26:45.730Z,4.00
2023-01-30T13:29:23.788Z,3.20
2023-01-30T13:31:57.454Z,3.30
2023-01-30T13:34:36.529Z,3.30
2023-01-30T13:37:04.529Z,2.50
2023-01-30T13:39:42.639Z,3.20
2023-01-30T13:42:18.219Z,2.70
2023-01-30T13:44:50.353Z,2.80
2023-01-30T13:47:18.236Z,2.70
2023-01-30T13:49:50.595Z,3.50
2023-01-30T13:52:32.324Z,4.10
2023-01-30T13:55:00.645Z,3.80
2023-01-30T13:57:56.113Z,2.50
2023-01-30T14:00:32.052Z,2.80
2023-01-30T14:03:03.106Z,3.30
2023-01-30T14:05:49.936Z,2.70
2023-01-30T14:10:47.813Z,2.60
2023-01-30T14:13:17.748Z,2.60
2023-01-30T14:15:54.752Z,2.40
2023-01-30T14:18:24.107Z,2.70
2023-01-30T14:20:54.172Z,2.30
2023-01-30T14:23:23.529Z,2.40
2023-01-30T14:25:53.117Z,2.90
2023-01-30T14:28:20.989Z,3.20
2023-01-30T14:30:53.157Z,2.80
2023-01-30T14:33:24.492Z,3.00
2023-01-30T14:35:58.642Z,3.30
2023-01-30T14:38:53.064Z,2.90
2023-01-30T14:41:28.290Z,2.90
2023-01-30T14:43:56.490Z,2.20
2023-01-30T14:46:26.147Z,2.20
2023-01-30T14:49:05.601Z,2.50
2023-01-30T14:51:44.163Z,2.30
2023-01-30T14:54:14.379Z,2.40
2023-01-30T14:56:42.567Z,2.40
2023-01-30T14:59:17.059Z,2.80
2023-01-30T15:01:57.028Z,2.40
2023-01-30T15:04:27.110Z,2.60
2023-01-30T15:06:54.959Z,2.50
2023-01-30T15:09:27.812Z,2.50
2023-01-30T15:12:19.155Z,2.90
2023-01-30T15:14:55.169Z,3.30
2023-01-30T15:17:23.144Z,2.40
2023-01-30T15:19:56.814Z,2.70
2023-01-30T15:22:38.332Z,2.40
2023-01-30T15:25:19.049Z,2.80
2023-01-30T15:28:16.512Z,2.70
2023-01-30T15:30:57.447Z,2.50
2023-01-30T15:33:31.561Z,2.10
2023-01-30T15:36:00.870Z,2.50
2023-01-30T15:38:30.967Z,2.30
2023-01-30T15:41:04.714Z,2.40
2023-01-30T15:43:59.979Z,2.40
2023-01-30T15:46:43.008Z,2.40
2023-01-30T15:49:25.931Z,2.40
2023-01-30T15:51:54.028Z,2.70
2023-01-30T15:54:24.310Z,2.40
2023-01-30T15:56:54.047Z,2.60
2023-01-30T15:59:33.734Z,2.30
2023-01-30T16:02:14.271Z,2.60
2023-01-30T16:04:42.263Z,2.20
2023-01-30T16:07:26.711Z,2.80
2023-01-30T16:10:06.836Z,2.50
2023-01-30T16:12:41.041Z,2.30
2023-01-30T16:15:19.724Z,2.10
2023-01-30T16:17:54.423Z,2.40
2023-01-30T16:20:22.488Z,2.70
2023-01-30T16:22:50.467Z,2.80
2023-01-30T16:25:26.245Z,2.60
2023-01-30T16:27:54.491Z,2.80
2023-01-30T16:30:24.712Z,2.90
2023-01-30T16:32:53.633Z,2.90
2023-01-30T16:35:28.293Z,3.10
2023-01-30T16:37:57.701Z,3.00
2023-01-30T16:40:27.673Z,2.80
2023-01-30T16:42:57.376Z,3.10
2023-01-30T16:45:34.480Z,3.30
2023-01-30T16:48:06.045Z,3.10
2023-01-30T16:50:33.975Z,2.90
2023-01-30T16:53:02.149Z,2.50
2023-01-30T16:55:30.777Z,3.00
2023-01-30T16:58:01.238Z,2.50
2023-01-30T17:00:36.776Z,2.60
2023-01-30T17:03:19.671Z,2.20
2023-01-30T17:05:50.756Z,2.80
2023-01-30T17:08:44.937Z,2.50
2023-01-30T17:11:42.093Z,2.90
2023-01-30T17:14:20.286Z,2.80
2023-01-30T17:17:07.024Z,3.10
2023-01-30T17:19:35.437Z,2.90
2023-01-30T17:22:04.933Z,2.50
2023-01-30T17:24:35.854Z,2.90
2023-01-30T17:27:04.796Z,2.20
2023-01-30T17:29:42.314Z,1.90
2023-01-30T17:32:15.526Z,1.80
2023-01-30T17:34:43.674Z,1.80
2023-01-30T17:37:20.108Z,3.60
2023-01-30T17:39:48.548Z,18.90
2023-01-30T17:42:22.487Z,19.80
2023-01-30T17:44:51.303Z,2.40
2023-01-30T17:47:19.292Z,2.30
2023-01-30T17:49:48.384Z,7.10
2023-01-30T17:52:18.720Z,6.40
2023-01-30T17:54:47.307Z,2.30
2023-01-30T17:57:16.100Z,1.40
2023-01-30T17:59:44.272Z,7.00
2023-01-30T18:02:12.364Z,2.20
2023-01-30T18:04:40.291Z,1.90
2023-01-30T18:07:12.823Z,1.90
2023-01-30T18:09:41.336Z,1.40
2023-01-30T18:12:09.458Z,1.50
2023-01-30T18:14:37.413Z,2.60
2023-01-30T18:17:05.954Z,1.90
2023-01-30T18:19:33.836Z,1.90
2023-01-30T18:22:01.901Z,2.00
2023-01-30T18:24:29.888Z,2.20
2023-01-30T18:26:59.116Z,2.00
2023-01-30T18:29:28.099Z,2.50
2023-01-30T18:31:57.244Z,2.20
2023-01-30T18:34:25.734Z,2.40
2023-01-30T18:36:56.962Z,1.90
2023-01-30T18:39:25.071Z,2.10
2023-01-30T18:41:53.023Z,3.30
2023-01-30T18:44:21.909Z,3.00
2023-01-30T18:46:50.494Z,3.50
2023-01-30T18:49:19.593Z,3.20
2023-01-30T18:51:47.777Z,2.50
2023-01-30T18:54:16.355Z,2.30
2023-01-30T18:56:44.932Z,2.00
2023-01-30T18:59:13.205Z,2.90
2023-01-30T19:01:44.589Z,2.80
2023-01-30T19:04:14.283Z,2.50
2023-01-30T19:06:43.080Z,2.20
2023-01-30T19:09:15.745Z,2.90
2023-01-30T19:12:05.076Z,3.50
2023-01-30T19:14:33.183Z,2.50
2023-01-30T19:17:02.457Z,4.10
2023-01-30T19:19:30.542Z,3.20
2023-01-30T19:21:58.702Z,3.60
2023-01-30T19:24:27.515Z,2.50
2023-01-30T19:26:56.809Z,3.00
2023-01-30T19:29:25.164Z,3.60
2023-01-30T19:31:53.541Z,2.90
2023-01-30T19:34:22.227Z,3.60
2023-01-30T19:36:52.159Z,4.10
2023-01-30T19:39:21.567Z,3.30
2023-01-30T19:41:50.043Z,3.90
2023-01-30T19:44:21.059Z,3.70
2023-01-30T19:46:50.916Z,3.30
2023-01-30T19:49:22.582Z,3.10
2023-01-30T19:51:51.741Z,3.00
2023-01-30T19:54:21.063Z,3.60
2023-01-30T19:56:49.823Z,3.00
2023-01-30T19:59:20.612Z,3.40
2023-01-30T20:01:50.591Z,2.40
2023-01-30T20:04:19.246Z,2.80
2023-01-30T20:06:49.749Z,2.50
2023-01-30T20:09:19.582Z,2.50
2023-01-30T20:11:49.238Z,2.50
2023-01-30T20:14:19.529Z,2.70
2023-01-30T20:16:48.221Z,3.10
2023-01-30T20:19:16.870Z,2.60
2023-01-30T20:21:45.677Z,3.10
2023-01-30T20:24:15.598Z,2.70
2023-01-30T20:26:47.868Z,2.90
2023-01-30T20:29:21.271Z,2.50
2023-01-30T20:31:52.748Z,2.90
2023-01-30T20:34:22.095Z,3.10
2023-01-30T20:36:50.001Z,3.00
2023-01-30T20:39:21.755Z,2.60
2023-01-30T20:41:50.574Z,3.00
2023-01-30T20:44:20.862Z,3.20
2023-01-30T20:46:51.299Z,3.10
2023-01-30T20:49:20.261Z,2.70
2023-01-30T20:51:50.262Z,2.00
2023-01-30T20:54:19.803Z,2.40
2023-01-30T20:56:49.547Z,2.20
2023-01-30T20:59:24.552Z,2.00
2023-01-30T21:01:53.572Z,2.50
2023-01-30T21:04:22.673Z,1.90
2023-01-30T21:06:51.635Z,1.90
2023-01-30T21:09:21.428Z,1.90
2023-01-30T21:11:50.034Z,1.70
2023-01-30T21:14:18.270Z,1.90
2023-01-30T21:16:46.881Z,1.70
2023-01-30T21:19:17.377Z,2.00
2023-01-30T21:21:51.496Z,2.70
2023-01-30T21:24:28.069Z,2.00
2023-01-30T21:26:56.962Z,1.70
2023-01-30T21:29:26.576Z,2.50
2023-01-30T21:31:56.817Z,2.50
2023-01-30T21:34:25.971Z,3.90
2023-01-30T21:37:13.091Z,2.60
2023-01-30T21:40:01.142Z,2.90
2023-01-30T21:42:48.991Z,2.80
2023-01-30T21:45:21.335Z,3.10
2023-01-30T21:47:50.662Z,2.80
2023-01-30T21:50:20.397Z,2.60
2023-01-30T21:52:49.384Z,2.30
2023-01-30T21:55:18.104Z,4.20
2023-01-30T21:57:46.907Z,3.30
2023-01-30T22:00:15.401Z,2.90
2023-01-30T22:02:43.696Z,3.70
2023-01-30T22:05:12.782Z,3.90
2023-01-30T22:07:42.916Z,2.80
2023-01-30T22:10:11.631Z,9.60
2023-01-30T22:12:41.433Z,4.00
2023-01-30T22:15:09.745Z,3.50
2023-01-30T22:17:38.599Z,3.30
2023-01-30T22:20:10.242Z,3.40
2023-01-30T22:22:39.081Z,3.30
2023-01-30T22:25:07.688Z,3.30
2023-01-30T22:27:37.338Z,7.10
2023-01-30T22:30:06.067Z,5.60
2023-01-30T22:32:34.851Z,3.40
2023-01-30T22:35:03.174Z,3.40
2023-01-30T22:37:33.581Z,2.90
2023-01-30T22:40:02.724Z,2.80
2023-01-30T22:42:31.111Z,3.60
2023-01-30T22:44:59.907Z,3.10
2023-01-30T22:47:28.291Z,2.80
2023-01-30T22:49:57.289Z,2.50
2023-01-30T22:52:25.864Z,2.90
2023-01-30T22:54:54.160Z,2.90
2023-01-30T22:57:23.148Z,4.00
2023-01-30T22:59:52.243Z,3.00
2023-01-30T23:02:20.609Z,2.90
2023-01-30T23:04:50.574Z,3.00
2023-01-30T23:07:20.936Z,2.80
2023-01-30T23:09:48.792Z,2.90
2023-01-30T23:12:36.789Z,2.40
2023-01-30T23:15:05.578Z,2.60
2023-01-30T23:17:53.104Z,2.60
2023-01-30T23:20:21.160Z,3.00
2023-01-30T23:22:50.966Z,2.90
2023-01-30T23:25:19.440Z,2.60
2023-01-30T23:27:47.685Z,2.80
2023-01-30T23:30:15.961Z,3.50
2023-01-30T23:32:44.130Z,3.20
2023-01-30T23:35:13.199Z,3.40
2023-01-30T23:38:00.096Z,2.70
2023-01-30T23:40:29.626Z,3.60
2023-01-30T23:42:57.719Z,3.00
2023-01-30T23:45:27.382Z,3.40
2023-01-30T23:47:55.135Z,3.40
2023-01-30T23:50:22.941Z,3.00
2023-01-30T23:52:51.881Z,3.00
2023-01-30T23:55:20.052Z,3.30
2023-01-30T23:57:48.191Z,3.30
